Terminal Aerodrome Forecast
Issued by NWS Shreveport, LA

Home | Current Version | Previous Version | Text Only | Print | Product List | Glossary On
Versions: 1 2 3 4 5 6 7 8 9 10 11 12 13 14 15 16 17
260
FTUS44 KSHV 212321
TAFMLU
TAF
KMLU 212321Z 2200/2224 VRB03KT P6SM VCSH SCT050 SCT250
      TEMPO 2209/2213 3SM BR
     FM221300 VRB03KT P6SM SCT250
      TEMPO 2216/2218 BKN030
     FM221800 07004KT P6SM SCT040 SCT250=

USA.gov is the U.S. government's official web portal to all federal, state and local government web resources and services.